sensor_id;sensor_type;location;lat;lon;timestamp;P1;durP1;ratioP1;P2;durP2;ratioP2
29120;SDS011;16191;49.548;8.658;2022-12-17T00:00:45;38.10;;;17.50;;
29120;SDS011;16191;49.548;8.658;2022-12-17T00:03:30;31.83;;;16.77;;
29120;SDS011;16191;49.548;8.658;2022-12-17T00:06:17;35.10;;;17.20;;
29120;SDS011;16191;49.548;8.658;2022-12-17T00:09:03;37.45;;;17.25;;
29120;SDS011;16191;49.548;8.658;2022-12-17T00:11:49;35.20;;;17.58;;
29120;SDS011;16191;49.548;8.658;2022-12-17T00:14:51;34.90;;;16.48;;
29120;SDS011;16191;49.548;8.658;2022-12-17T00:17:36;38.75;;;18.25;;
29120;SDS011;16191;49.548;8.658;2022-12-17T00:20:22;35.92;;;19.02;;
29120;SDS011;16191;49.548;8.658;2022-12-17T00:23:07;40.72;;;17.85;;
29120;SDS011;16191;49.548;8.658;2022-12-17T00:25:53;30.38;;;15.02;;
29120;SDS011;16191;49.548;8.658;2022-12-17T00:28:40;29.75;;;14.90;;
29120;SDS011;16191;49.548;8.658;2022-12-17T00:31:27;34.38;;;16.60;;
29120;SDS011;16191;49.548;8.658;2022-12-17T00:34:14;28.65;;;14.45;;
29120;SDS011;16191;49.548;8.658;2022-12-17T00:36:59;28.77;;;14.93;;
29120;SDS011;16191;49.548;8.658;2022-12-17T00:39:44;29.15;;;13.75;;
29120;SDS011;16191;49.548;8.658;2022-12-17T00:42:30;30.17;;;14.80;;
29120;SDS011;16191;49.548;8.658;2022-12-17T00:45:15;29.77;;;14.23;;
29120;SDS011;16191;49.548;8.658;2022-12-17T00:48:01;30.95;;;14.13;;
29120;SDS011;16191;49.548;8.658;2022-12-17T00:50:47;28.42;;;14.85;;
29120;SDS011;16191;49.548;8.658;2022-12-17T00:53:35;29.50;;;13.80;;
29120;SDS011;16191;49.548;8.658;2022-12-17T00:56:20;26.10;;;14.82;;
29120;SDS011;16191;49.548;8.658;2022-12-17T00:59:05;38.22;;;15.00;;
29120;SDS011;16191;49.548;8.658;2022-12-17T01:01:51;35.25;;;15.32;;
29120;SDS011;16191;49.548;8.658;2022-12-17T01:04:36;36.95;;;15.52;;
29120;SDS011;16191;49.548;8.658;2022-12-17T01:07:22;38.38;;;17.77;;
29120;SDS011;16191;49.548;8.658;2022-12-17T01:10:08;39.08;;;17.42;;
29120;SDS011;16191;49.548;8.658;2022-12-17T01:12:56;40.90;;;18.95;;
29120;SDS011;16191;49.548;8.658;2022-12-17T01:15:41;39.90;;;20.23;;
29120;SDS011;16191;49.548;8.658;2022-12-17T01:18:27;44.35;;;19.60;;
29120;SDS011;16191;49.548;8.658;2022-12-17T01:21:12;32.60;;;15.18;;
29120;SDS011;16191;49.548;8.658;2022-12-17T01:23:58;38.55;;;16.77;;
29120;SDS011;16191;49.548;8.658;2022-12-17T01:26:44;43.15;;;18.92;;
29120;SDS011;16191;49.548;8.658;2022-12-17T01:29:50;43.95;;;20.05;;
29120;SDS011;16191;49.548;8.658;2022-12-17T01:32:59;45.83;;;19.33;;
29120;SDS011;16191;49.548;8.658;2022-12-17T01:39:11;42.92;;;19.17;;
29120;SDS011;16191;49.548;8.658;2022-12-17T01:42:17;40.53;;;19.05;;
29120;SDS011;16191;49.548;8.658;2022-12-17T01:45:23;42.42;;;19.80;;
29120;SDS011;16191;49.548;8.658;2022-12-17T01:48:12;41.88;;;19.45;;
29120;SDS011;16191;49.548;8.658;2022-12-17T01:51:00;38.88;;;18.67;;
29120;SDS011;16191;49.548;8.658;2022-12-17T01:53:47;44.83;;;19.60;;
29120;SDS011;16191;49.548;8.658;2022-12-17T01:56:39;36.72;;;17.63;;
29120;SDS011;16191;49.548;8.658;2022-12-17T01:59:35;40.00;;;18.10;;
29120;SDS011;16191;49.548;8.658;2022-12-17T02:02:27;33.42;;;15.63;;
29120;SDS011;16191;49.548;8.658;2022-12-17T02:05:12;28.15;;;12.50;;
29120;SDS011;16191;49.548;8.658;2022-12-17T02:10:49;33.13;;;13.38;;
29120;SDS011;16191;49.548;8.658;2022-12-17T02:14:13;28.55;;;12.30;;
29120;SDS011;16191;49.548;8.658;2022-12-17T02:17:04;27.60;;;12.55;;
29120;SDS011;16191;49.548;8.658;2022-12-17T02:20:07;27.55;;;11.40;;
29120;SDS011;16191;49.548;8.658;2022-12-17T02:23:13;26.20;;;10.98;;
29120;SDS011;16191;49.548;8.658;2022-12-17T02:26:16;21.45;;;9.73;;
29120;SDS011;16191;49.548;8.658;2022-12-17T02:29:05;19.42;;;9.32;;
29120;SDS011;16191;49.548;8.658;2022-12-17T02:31:52;23.58;;;11.20;;
29120;SDS011;16191;49.548;8.658;2022-12-17T02:34:43;24.98;;;11.25;;
29120;SDS011;16191;49.548;8.658;2022-12-17T02:37:31;23.08;;;10.05;;
29120;SDS011;16191;49.548;8.658;2022-12-17T02:40:18;25.40;;;10.15;;
29120;SDS011;16191;49.548;8.658;2022-12-17T02:43:06;22.10;;;10.93;;
29120;SDS011;16191;49.548;8.658;2022-12-17T02:45:54;28.30;;;11.40;;
29120;SDS011;16191;49.548;8.658;2022-12-17T02:48:41;24.98;;;12.07;;
29120;SDS011;16191;49.548;8.658;2022-12-17T02:51:30;30.83;;;10.68;;
29120;SDS011;16191;49.548;8.658;2022-12-17T02:54:15;22.23;;;11.07;;
29120;SDS011;16191;49.548;8.658;2022-12-17T02:57:02;21.27;;;10.75;;
29120;SDS011;16191;49.548;8.658;2022-12-17T02:59:48;23.20;;;10.40;;
29120;SDS011;16191;49.548;8.658;2022-12-17T03:02:33;19.35;;;9.45;;
29120;SDS011;16191;49.548;8.658;2022-12-17T03:05:19;21.75;;;9.23;;
29120;SDS011;16191;49.548;8.658;2022-12-17T03:08:12;22.05;;;10.35;;
29120;SDS011;16191;49.548;8.658;2022-12-17T03:10:58;20.02;;;9.70;;
29120;SDS011;16191;49.548;8.658;2022-12-17T03:13:42;21.48;;;10.45;;
29120;SDS011;16191;49.548;8.658;2022-12-17T03:16:28;23.20;;;11.00;;
29120;SDS011;16191;49.548;8.658;2022-12-17T03:19:14;25.02;;;11.38;;
29120;SDS011;16191;49.548;8.658;2022-12-17T03:22:02;24.52;;;11.43;;
29120;SDS011;16191;49.548;8.658;2022-12-17T03:24:47;23.55;;;11.52;;
29120;SDS011;16191;49.548;8.658;2022-12-17T03:27:32;22.95;;;11.55;;
29120;SDS011;16191;49.548;8.658;2022-12-17T03:30:18;21.50;;;11.40;;
29120;SDS011;16191;49.548;8.658;2022-12-17T03:33:06;21.45;;;11.05;;
29120;SDS011;16191;49.548;8.658;2022-12-17T03:35:52;21.95;;;11.00;;
29120;SDS011;16191;49.548;8.658;2022-12-17T03:38:49;29.02;;;11.95;;
29120;SDS011;16191;49.548;8.658;2022-12-17T03:41:34;29.25;;;13.25;;
29120;SDS011;16191;49.548;8.658;2022-12-17T03:44:20;20.98;;;11.05;;
29120;SDS011;16191;49.548;8.658;2022-12-17T03:47:05;20.67;;;10.65;;
29120;SDS011;16191;49.548;8.658;2022-12-17T03:49:54;23.33;;;11.45;;
29120;SDS011;16191;49.548;8.658;2022-12-17T03:52:39;21.65;;;10.75;;
29120;SDS011;16191;49.548;8.658;2022-12-17T03:55:25;20.63;;;10.05;;
29120;SDS011;16191;49.548;8.658;2022-12-17T03:58:11;18.90;;;9.48;;
29120;SDS011;16191;49.548;8.658;2022-12-17T04:00:56;18.55;;;8.57;;
29120;SDS011;16191;49.548;8.658;2022-12-17T04:03:42;18.00;;;8.88;;
29120;SDS011;16191;49.548;8.658;2022-12-17T04:06:27;18.08;;;8.40;;
29120;SDS011;16191;49.548;8.658;2022-12-17T04:09:12;17.73;;;8.35;;
29120;SDS011;16191;49.548;8.658;2022-12-17T04:11:59;15.73;;;7.35;;
29120;SDS011;16191;49.548;8.658;2022-12-17T04:14:45;14.50;;;7.47;;
29120;SDS011;16191;49.548;8.658;2022-12-17T04:17:30;14.82;;;7.25;;
29120;SDS011;16191;49.548;8.658;2022-12-17T04:20:16;15.07;;;6.47;;
29120;SDS011;16191;49.548;8.658;2022-12-17T04:23:01;14.88;;;6.90;;
29120;SDS011;16191;49.548;8.658;2022-12-17T04:25:47;14.35;;;7.45;;
29120;SDS011;16191;49.548;8.658;2022-12-17T04:28:32;18.38;;;7.63;;
29120;SDS011;16191;49.548;8.658;2022-12-17T04:31:18;13.52;;;7.40;;
29120;SDS011;16191;49.548;8.658;2022-12-17T04:34:03;14.63;;;7.55;;
29120;SDS011;16191;49.548;8.658;2022-12-17T04:36:48;15.70;;;7.53;;
29120;SDS011;16191;49.548;8.658;2022-12-17T04:39:34;14.43;;;8.02;;
29120;SDS011;16191;49.548;8.658;2022-12-17T04:42:19;16.30;;;7.55;;
29120;SDS011;16191;49.548;8.658;2022-12-17T04:45:05;13.27;;;6.85;;
29120;SDS011;16191;49.548;8.658;2022-12-17T04:47:50;11.38;;;6.13;;
29120;SDS011;16191;49.548;8.658;2022-12-17T04:50:43;13.32;;;6.97;;
29120;SDS011;16191;49.548;8.658;2022-12-17T04:53:29;14.18;;;7.00;;
29120;SDS011;16191;49.548;8.658;2022-12-17T04:56:14;14.82;;;6.88;;
29120;SDS011;16191;49.548;8.658;2022-12-17T04:59:00;15.07;;;6.78;;
29120;SDS011;16191;49.548;8.658;2022-12-17T05:01:45;15.68;;;7.20;;
29120;SDS011;16191;49.548;8.658;2022-12-17T05:04:34;13.80;;;6.78;;
29120;SDS011;16191;49.548;8.658;2022-12-17T05:07:19;14.55;;;6.93;;
29120;SDS011;16191;49.548;8.658;2022-12-17T05:10:05;12.50;;;6.88;;
29120;SDS011;16191;49.548;8.658;2022-12-17T05:13:00;16.80;;;6.50;;
29120;SDS011;16191;49.548;8.658;2022-12-17T05:15:45;17.85;;;7.28;;
29120;SDS011;16191;49.548;8.658;2022-12-17T05:18:30;15.43;;;6.80;;
29120;SDS011;16191;49.548;8.658;2022-12-17T05:21:16;14.77;;;6.18;;
29120;SDS011;16191;49.548;8.658;2022-12-17T05:24:06;20.73;;;8.05;;
29120;SDS011;16191;49.548;8.658;2022-12-17T05:26:51;23.23;;;9.20;;
29120;SDS011;16191;49.548;8.658;2022-12-17T05:29:36;30.90;;;12.57;;
29120;SDS011;16191;49.548;8.658;2022-12-17T05:32:22;34.85;;;14.73;;
29120;SDS011;16191;49.548;8.658;2022-12-17T05:35:07;38.33;;;16.15;;
29120;SDS011;16191;49.548;8.658;2022-12-17T05:37:53;34.53;;;14.45;;
29120;SDS011;16191;49.548;8.658;2022-12-17T05:40:38;28.42;;;12.52;;
29120;SDS011;16191;49.548;8.658;2022-12-17T05:43:24;23.33;;;10.55;;
29120;SDS011;16191;49.548;8.658;2022-12-17T05:46:09;19.50;;;9.32;;
29120;SDS011;16191;49.548;8.658;2022-12-17T05:48:54;22.13;;;8.77;;
29120;SDS011;16191;49.548;8.658;2022-12-17T05:51:40;18.42;;;8.73;;
29120;SDS011;16191;49.548;8.658;2022-12-17T05:54:25;17.40;;;8.02;;
29120;SDS011;16191;49.548;8.658;2022-12-17T05:57:11;16.92;;;8.07;;
29120;SDS011;16191;49.548;8.658;2022-12-17T05:59:56;20.95;;;8.32;;
29120;SDS011;16191;49.548;8.658;2022-12-17T06:02:41;21.00;;;7.53;;
29120;SDS011;16191;49.548;8.658;2022-12-17T06:05:27;17.25;;;8.00;;
29120;SDS011;16191;49.548;8.658;2022-12-17T06:08:13;13.90;;;8.00;;
29120;SDS011;16191;49.548;8.658;2022-12-17T06:10:58;16.65;;;7.72;;
29120;SDS011;16191;49.548;8.658;2022-12-17T06:13:45;16.30;;;7.75;;
29120;SDS011;16191;49.548;8.658;2022-12-17T06:16:30;15.48;;;7.20;;
29120;SDS011;16191;49.548;8.658;2022-12-17T06:19:16;19.33;;;8.65;;
29120;SDS011;16191;49.548;8.658;2022-12-17T06:22:01;14.25;;;7.93;;
29120;SDS011;16191;49.548;8.658;2022-12-17T06:24:46;17.70;;;7.70;;
29120;SDS011;16191;49.548;8.658;2022-12-17T06:27:32;17.52;;;7.97;;
29120;SDS011;16191;49.548;8.658;2022-12-17T06:30:17;15.32;;;7.40;;
29120;SDS011;16191;49.548;8.658;2022-12-17T06:33:06;19.90;;;7.93;;
29120;SDS011;16191;49.548;8.658;2022-12-17T06:35:54;21.83;;;7.78;;
29120;SDS011;16191;49.548;8.658;2022-12-17T06:38:47;22.50;;;8.45;;
29120;SDS011;16191;49.548;8.658;2022-12-17T06:41:33;20.20;;;8.90;;
29120;SDS011;16191;49.548;8.658;2022-12-17T06:44:29;18.63;;;9.15;;
29120;SDS011;16191;49.548;8.658;2022-12-17T06:47:15;34.80;;;13.60;;
29120;SDS011;16191;49.548;8.658;2022-12-17T06:50:00;38.88;;;14.60;;
29120;SDS011;16191;49.548;8.658;2022-12-17T06:52:45;47.10;;;18.58;;
29120;SDS011;16191;49.548;8.658;2022-12-17T06:55:31;44.58;;;20.30;;
29120;SDS011;16191;49.548;8.658;2022-12-17T06:58:17;47.92;;;18.73;;
29120;SDS011;16191;49.548;8.658;2022-12-17T07:01:03;51.00;;;20.40;;
29120;SDS011;16191;49.548;8.658;2022-12-17T07:03:49;57.38;;;20.48;;
29120;SDS011;16191;49.548;8.658;2022-12-17T07:06:35;46.35;;;19.25;;
29120;SDS011;16191;49.548;8.658;2022-12-17T07:09:23;39.93;;;18.43;;
29120;SDS011;16191;49.548;8.658;2022-12-17T07:12:09;46.60;;;20.00;;
29120;SDS011;16191;49.548;8.658;2022-12-17T07:14:54;51.60;;;20.10;;
29120;SDS011;16191;49.548;8.658;2022-12-17T07:17:39;51.25;;;21.10;;
29120;SDS011;16191;49.548;8.658;2022-12-17T07:20:24;51.47;;;19.80;;
29120;SDS011;16191;49.548;8.658;2022-12-17T07:23:10;44.75;;;19.13;;
29120;SDS011;16191;49.548;8.658;2022-12-17T07:25:55;46.92;;;19.73;;
29120;SDS011;16191;49.548;8.658;2022-12-17T07:28:41;47.60;;;20.35;;
29120;SDS011;16191;49.548;8.658;2022-12-17T07:31:27;57.13;;;22.10;;
29120;SDS011;16191;49.548;8.658;2022-12-17T07:34:12;49.83;;;20.10;;
29120;SDS011;16191;49.548;8.658;2022-12-17T07:36:57;51.38;;;20.25;;
29120;SDS011;16191;49.548;8.658;2022-12-17T07:39:46;37.13;;;15.27;;
29120;SDS011;16191;49.548;8.658;2022-12-17T07:42:48;29.70;;;14.20;;
29120;SDS011;16191;49.548;8.658;2022-12-17T07:45:33;24.20;;;12.73;;
29120;SDS011;16191;49.548;8.658;2022-12-17T07:48:19;26.80;;;11.57;;
29120;SDS011;16191;49.548;8.658;2022-12-17T07:51:05;22.02;;;10.05;;
29120;SDS011;16191;49.548;8.658;2022-12-17T07:53:50;23.15;;;11.20;;
29120;SDS011;16191;49.548;8.658;2022-12-17T07:56:35;26.50;;;12.10;;
29120;SDS011;16191;49.548;8.658;2022-12-17T07:59:21;19.95;;;9.68;;
29120;SDS011;16191;49.548;8.658;2022-12-17T08:02:08;25.83;;;9.57;;
29120;SDS011;16191;49.548;8.658;2022-12-17T08:04:54;22.45;;;9.63;;
29120;SDS011;16191;49.548;8.658;2022-12-17T08:07:40;19.92;;;10.15;;
29120;SDS011;16191;49.548;8.658;2022-12-17T08:10:25;29.30;;;12.50;;
29120;SDS011;16191;49.548;8.658;2022-12-17T08:13:10;36.03;;;14.13;;
29120;SDS011;16191;49.548;8.658;2022-12-17T08:15:56;30.08;;;14.95;;
29120;SDS011;16191;49.548;8.658;2022-12-17T08:18:41;32.67;;;12.95;;
29120;SDS011;16191;49.548;8.658;2022-12-17T08:21:26;26.83;;;11.95;;
29120;SDS011;16191;49.548;8.658;2022-12-17T08:24:11;26.33;;;11.23;;
29120;SDS011;16191;49.548;8.658;2022-12-17T08:26:57;24.95;;;11.75;;
29120;SDS011;16191;49.548;8.658;2022-12-17T08:29:46;27.88;;;12.02;;
29120;SDS011;16191;49.548;8.658;2022-12-17T08:32:31;32.05;;;13.52;;
29120;SDS011;16191;49.548;8.658;2022-12-17T08:35:16;27.38;;;12.13;;
29120;SDS011;16191;49.548;8.658;2022-12-17T08:38:03;23.67;;;11.13;;
29120;SDS011;16191;49.548;8.658;2022-12-17T08:40:49;28.05;;;11.23;;
29120;SDS011;16191;49.548;8.658;2022-12-17T08:43:34;46.47;;;21.75;;
29120;SDS011;16191;49.548;8.658;2022-12-17T08:46:20;59.15;;;23.10;;
29120;SDS011;16191;49.548;8.658;2022-12-17T08:49:05;61.25;;;25.02;;
29120;SDS011;16191;49.548;8.658;2022-12-17T08:51:51;56.92;;;23.63;;
29120;SDS011;16191;49.548;8.658;2022-12-17T08:54:36;55.38;;;22.63;;
29120;SDS011;16191;49.548;8.658;2022-12-17T08:57:22;48.80;;;21.48;;
29120;SDS011;16191;49.548;8.658;2022-12-17T09:00:08;52.40;;;20.50;;
29120;SDS011;16191;49.548;8.658;2022-12-17T09:02:57;51.67;;;22.33;;
29120;SDS011;16191;49.548;8.658;2022-12-17T09:05:44;56.97;;;23.48;;
29120;SDS011;16191;49.548;8.658;2022-12-17T09:08:30;59.22;;;27.05;;
29120;SDS011;16191;49.548;8.658;2022-12-17T09:11:15;155.20;;;28.02;;
29120;SDS011;16191;49.548;8.658;2022-12-17T09:14:01;61.80;;;25.65;;
29120;SDS011;16191;49.548;8.658;2022-12-17T09:16:46;66.00;;;25.67;;
29120;SDS011;16191;49.548;8.658;2022-12-17T09:19:32;70.10;;;26.63;;
29120;SDS011;16191;49.548;8.658;2022-12-17T09:22:17;105.40;;;26.10;;
29120;SDS011;16191;49.548;8.658;2022-12-17T09:25:03;54.65;;;24.42;;
29120;SDS011;16191;49.548;8.658;2022-12-17T09:27:49;51.03;;;21.35;;
29120;SDS011;16191;49.548;8.658;2022-12-17T09:30:34;53.63;;;22.10;;
29120;SDS011;16191;49.548;8.658;2022-12-17T09:33:20;54.67;;;24.00;;
29120;SDS011;16191;49.548;8.658;2022-12-17T09:36:05;58.72;;;23.30;;
29120;SDS011;16191;49.548;8.658;2022-12-17T09:38:51;65.35;;;24.38;;
29120;SDS011;16191;49.548;8.658;2022-12-17T09:44:41;52.63;;;21.30;;
29120;SDS011;16191;49.548;8.658;2022-12-17T09:47:50;53.10;;;21.30;;
29120;SDS011;16191;49.548;8.658;2022-12-17T09:51:02;61.22;;;23.80;;
29120;SDS011;16191;49.548;8.658;2022-12-17T09:53:50;52.85;;;24.50;;
29120;SDS011;16191;49.548;8.658;2022-12-17T09:56:37;64.78;;;25.58;;
29120;SDS011;16191;49.548;8.658;2022-12-17T09:59:27;50.83;;;23.98;;
29120;SDS011;16191;49.548;8.658;2022-12-17T10:02:21;51.92;;;23.85;;
29120;SDS011;16191;49.548;8.658;2022-12-17T10:05:18;51.35;;;23.90;;
29120;SDS011;16191;49.548;8.658;2022-12-17T10:08:10;65.32;;;23.90;;
29120;SDS011;16191;49.548;8.658;2022-12-17T10:14:21;56.83;;;25.92;;
29120;SDS011;16191;49.548;8.658;2022-12-17T10:17:13;57.88;;;25.65;;
29120;SDS011;16191;49.548;8.658;2022-12-17T10:20:00;50.40;;;22.77;;
29120;SDS011;16191;49.548;8.658;2022-12-17T10:22:47;52.10;;;24.55;;
29120;SDS011;16191;49.548;8.658;2022-12-17T10:25:34;56.92;;;25.02;;
29120;SDS011;16191;49.548;8.658;2022-12-17T10:28:22;50.03;;;23.15;;
29120;SDS011;16191;49.548;8.658;2022-12-17T10:31:10;53.55;;;24.08;;
29120;SDS011;16191;49.548;8.658;2022-12-17T10:33:59;57.60;;;25.88;;
29120;SDS011;16191;49.548;8.658;2022-12-17T10:36:45;60.80;;;27.58;;
29120;SDS011;16191;49.548;8.658;2022-12-17T10:39:34;59.55;;;25.80;;
29120;SDS011;16191;49.548;8.658;2022-12-17T10:42:21;54.85;;;24.70;;
29120;SDS011;16191;49.548;8.658;2022-12-17T10:45:20;66.40;;;25.50;;
29120;SDS011;16191;49.548;8.658;2022-12-17T10:51:24;56.95;;;26.13;;
29120;SDS011;16191;49.548;8.658;2022-12-17T10:54:19;59.30;;;26.23;;
29120;SDS011;16191;49.548;8.658;2022-12-17T11:02:59;63.22;;;27.42;;
29120;SDS011;16191;49.548;8.658;2022-12-17T11:05:45;70.93;;;28.60;;
29120;SDS011;16191;49.548;8.658;2022-12-17T11:08:36;73.90;;;30.80;;
29120;SDS011;16191;49.548;8.658;2022-12-17T11:11:22;75.90;;;30.52;;
29120;SDS011;16191;49.548;8.658;2022-12-17T11:14:09;79.38;;;31.08;;
29120;SDS011;16191;49.548;8.658;2022-12-17T11:16:59;79.97;;;34.40;;
29120;SDS011;16191;49.548;8.658;2022-12-17T11:19:54;80.65;;;34.47;;
29120;SDS011;16191;49.548;8.658;2022-12-17T11:22:43;81.35;;;33.78;;
29120;SDS011;16191;49.548;8.658;2022-12-17T11:25:38;75.55;;;34.38;;
29120;SDS011;16191;49.548;8.658;2022-12-17T11:28:34;86.70;;;33.20;;
29120;SDS011;16191;49.548;8.658;2022-12-17T11:37:37;79.28;;;33.15;;
29120;SDS011;16191;49.548;8.658;2022-12-17T11:40:41;94.38;;;38.80;;
29120;SDS011;16191;49.548;8.658;2022-12-17T11:43:45;86.97;;;34.63;;
29120;SDS011;16191;49.548;8.658;2022-12-17T11:46:41;93.32;;;34.75;;
29120;SDS011;16191;49.548;8.658;2022-12-17T11:52:55;86.57;;;36.30;;
29120;SDS011;16191;49.548;8.658;2022-12-17T12:02:38;84.07;;;37.05;;
29120;SDS011;16191;49.548;8.658;2022-12-17T12:18:03;119.78;;;47.78;;
29120;SDS011;16191;49.548;8.658;2022-12-17T12:21:17;126.10;;;48.22;;
29120;SDS011;16191;49.548;8.658;2022-12-17T12:27:35;103.35;;;41.38;;
29120;SDS011;16191;49.548;8.658;2022-12-17T12:36:38;95.10;;;38.45;;
29120;SDS011;16191;49.548;8.658;2022-12-17T12:39:28;79.55;;;34.65;;
29120;SDS011;16191;49.548;8.658;2022-12-17T12:45:45;83.80;;;34.72;;
29120;SDS011;16191;49.548;8.658;2022-12-17T12:51:47;82.28;;;34.58;;
29120;SDS011;16191;49.548;8.658;2022-12-17T12:57:35;82.60;;;34.08;;
29120;SDS011;16191;49.548;8.658;2022-12-17T13:01:05;80.95;;;34.53;;
29120;SDS011;16191;49.548;8.658;2022-12-17T13:11:52;84.82;;;36.80;;
29120;SDS011;16191;49.548;8.658;2022-12-17T13:14:34;89.22;;;36.88;;
29120;SDS011;16191;49.548;8.658;2022-12-17T13:19:45;89.00;;;37.92;;
29120;SDS011;16191;49.548;8.658;2022-12-17T13:22:26;86.43;;;36.55;;
29120;SDS011;16191;49.548;8.658;2022-12-17T13:24:56;84.70;;;36.58;;
29120;SDS011;16191;49.548;8.658;2022-12-17T13:27:41;78.50;;;34.78;;
29120;SDS011;16191;49.548;8.658;2022-12-17T13:33:02;83.60;;;36.35;;
29120;SDS011;16191;49.548;8.658;2022-12-17T13:35:39;83.25;;;36.67;;
29120;SDS011;16191;49.548;8.658;2022-12-17T13:43:44;87.50;;;37.75;;
29120;SDS011;16191;49.548;8.658;2022-12-17T13:46:26;76.82;;;34.85;;
29120;SDS011;16191;49.548;8.658;2022-12-17T13:49:02;76.85;;;36.03;;
29120;SDS011;16191;49.548;8.658;2022-12-17T13:51:32;74.93;;;35.90;;
29120;SDS011;16191;49.548;8.658;2022-12-17T13:54:02;80.30;;;35.50;;
29120;SDS011;16191;49.548;8.658;2022-12-17T13:59:02;83.63;;;36.28;;
29120;SDS011;16191;49.548;8.658;2022-12-17T14:01:42;84.50;;;37.22;;
29120;SDS011;16191;49.548;8.658;2022-12-17T14:04:18;86.95;;;36.83;;
29120;SDS011;16191;49.548;8.658;2022-12-17T14:06:46;80.35;;;36.40;;
29120;SDS011;16191;49.548;8.658;2022-12-17T14:09:17;78.78;;;36.95;;
29120;SDS011;16191;49.548;8.658;2022-12-17T14:11:47;85.05;;;37.00;;
29120;SDS011;16191;49.548;8.658;2022-12-17T14:14:40;84.65;;;37.03;;
29120;SDS011;16191;49.548;8.658;2022-12-17T14:17:16;80.28;;;35.95;;
29120;SDS011;16191;49.548;8.658;2022-12-17T14:22:37;91.40;;;39.13;;
29120;SDS011;16191;49.548;8.658;2022-12-17T14:25:15;90.65;;;38.33;;
29120;SDS011;16191;49.548;8.658;2022-12-17T14:28:00;83.22;;;37.70;;
29120;SDS011;16191;49.548;8.658;2022-12-17T14:30:35;87.90;;;36.92;;
29120;SDS011;16191;49.548;8.658;2022-12-17T14:33:30;89.15;;;38.40;;
29120;SDS011;16191;49.548;8.658;2022-12-17T14:35:59;100.63;;;42.83;;
29120;SDS011;16191;49.548;8.658;2022-12-17T14:38:31;93.53;;;41.65;;
29120;SDS011;16191;49.548;8.658;2022-12-17T14:41:12;94.35;;;38.50;;
29120;SDS011;16191;49.548;8.658;2022-12-17T14:43:58;79.78;;;35.85;;
29120;SDS011;16191;49.548;8.658;2022-12-17T14:46:27;86.45;;;36.17;;
29120;SDS011;16191;49.548;8.658;2022-12-17T14:48:56;85.57;;;36.00;;
29120;SDS011;16191;49.548;8.658;2022-12-17T14:51:37;89.05;;;36.55;;
29120;SDS011;16191;49.548;8.658;2022-12-17T14:56:47;109.32;;;41.63;;
29120;SDS011;16191;49.548;8.658;2022-12-17T15:02:10;91.85;;;39.30;;
29120;SDS011;16191;49.548;8.658;2022-12-17T15:04:45;90.95;;;38.85;;
29120;SDS011;16191;49.548;8.658;2022-12-17T15:07:12;106.13;;;38.15;;
29120;SDS011;16191;49.548;8.658;2022-12-17T15:09:43;99.53;;;40.40;;
29120;SDS011;16191;49.548;8.658;2022-12-17T15:12:10;214.98;;;44.80;;
29120;SDS011;16191;49.548;8.658;2022-12-17T15:14:36;150.52;;;44.90;;
29120;SDS011;16191;49.548;8.658;2022-12-17T15:17:03;103.57;;;38.80;;
29120;SDS011;16191;49.548;8.658;2022-12-17T15:19:30;111.95;;;41.75;;
29120;SDS011;16191;49.548;8.658;2022-12-17T15:21:56;105.00;;;39.92;;
29120;SDS011;16191;49.548;8.658;2022-12-17T15:24:23;96.47;;;38.50;;
29120;SDS011;16191;49.548;8.658;2022-12-17T15:26:50;96.22;;;38.17;;
29120;SDS011;16191;49.548;8.658;2022-12-17T15:29:16;90.82;;;37.95;;
29120;SDS011;16191;49.548;8.658;2022-12-17T15:31:43;194.52;;;42.25;;
29120;SDS011;16191;49.548;8.658;2022-12-17T15:34:10;100.95;;;38.38;;
29120;SDS011;16191;49.548;8.658;2022-12-17T15:36:37;106.00;;;37.67;;
29120;SDS011;16191;49.548;8.658;2022-12-17T15:39:04;97.32;;;37.95;;
29120;SDS011;16191;49.548;8.658;2022-12-17T15:41:32;88.32;;;36.80;;
29120;SDS011;16191;49.548;8.658;2022-12-17T15:44:18;85.07;;;35.75;;
29120;SDS011;16191;49.548;8.658;2022-12-17T15:46:44;92.72;;;36.22;;
29120;SDS011;16191;49.548;8.658;2022-12-17T15:49:11;93.07;;;36.70;;
29120;SDS011;16191;49.548;8.658;2022-12-17T15:51:38;96.38;;;38.85;;
29120;SDS011;16191;49.548;8.658;2022-12-17T15:54:04;91.57;;;36.70;;
29120;SDS011;16191;49.548;8.658;2022-12-17T15:56:31;85.03;;;35.83;;
29120;SDS011;16191;49.548;8.658;2022-12-17T15:58:58;118.10;;;40.58;;
29120;SDS011;16191;49.548;8.658;2022-12-17T16:01:25;96.57;;;41.10;;
29120;SDS011;16191;49.548;8.658;2022-12-17T16:03:51;90.07;;;37.42;;
29120;SDS011;16191;49.548;8.658;2022-12-17T16:06:18;84.05;;;35.90;;
29120;SDS011;16191;49.548;8.658;2022-12-17T16:08:45;84.50;;;38.38;;
29120;SDS011;16191;49.548;8.658;2022-12-17T16:11:12;86.63;;;35.55;;
29120;SDS011;16191;49.548;8.658;2022-12-17T16:13:39;93.57;;;35.97;;
29120;SDS011;16191;49.548;8.658;2022-12-17T16:16:06;86.32;;;36.03;;
29120;SDS011;16191;49.548;8.658;2022-12-17T16:18:34;85.47;;;36.17;;
29120;SDS011;16191;49.548;8.658;2022-12-17T16:21:02;81.13;;;34.40;;
29120;SDS011;16191;49.548;8.658;2022-12-17T16:23:30;82.85;;;34.50;;
29120;SDS011;16191;49.548;8.658;2022-12-17T16:25:57;81.55;;;35.75;;
29120;SDS011;16191;49.548;8.658;2022-12-17T16:28:26;85.45;;;34.95;;
29120;SDS011;16191;49.548;8.658;2022-12-17T16:30:57;81.03;;;35.63;;
29120;SDS011;16191;49.548;8.658;2022-12-17T16:33:25;88.38;;;35.80;;
29120;SDS011;16191;49.548;8.658;2022-12-17T16:35:57;90.65;;;39.83;;
29120;SDS011;16191;49.548;8.658;2022-12-17T16:38:24;92.80;;;38.60;;
29120;SDS011;16191;49.548;8.658;2022-12-17T16:40:58;93.40;;;39.78;;
29120;SDS011;16191;49.548;8.658;2022-12-17T16:43:27;92.95;;;37.67;;
29120;SDS011;16191;49.548;8.658;2022-12-17T16:45:57;85.30;;;36.35;;
29120;SDS011;16191;49.548;8.658;2022-12-17T16:48:24;93.22;;;40.65;;
29120;SDS011;16191;49.548;8.658;2022-12-17T16:50:50;97.93;;;41.17;;
29120;SDS011;16191;49.548;8.658;2022-12-17T16:53:17;90.07;;;39.50;;
29120;SDS011;16191;49.548;8.658;2022-12-17T16:55:45;99.80;;;41.15;;
29120;SDS011;16191;49.548;8.658;2022-12-17T16:58:15;88.83;;;37.37;;
29120;SDS011;16191;49.548;8.658;2022-12-17T17:00:43;90.60;;;38.28;;
29120;SDS011;16191;49.548;8.658;2022-12-17T17:03:11;88.43;;;38.92;;
29120;SDS011;16191;49.548;8.658;2022-12-17T17:05:40;96.88;;;40.53;;
29120;SDS011;16191;49.548;8.658;2022-12-17T17:08:07;91.65;;;38.33;;
29120;SDS011;16191;49.548;8.658;2022-12-17T17:10:34;97.10;;;42.45;;
29120;SDS011;16191;49.548;8.658;2022-12-17T17:13:02;96.35;;;43.65;;
29120;SDS011;16191;49.548;8.658;2022-12-17T17:15:29;79.88;;;36.50;;
29120;SDS011;16191;49.548;8.658;2022-12-17T17:17:55;98.40;;;42.17;;
29120;SDS011;16191;49.548;8.658;2022-12-17T17:20:28;85.95;;;36.35;;
29120;SDS011;16191;49.548;8.658;2022-12-17T17:22:57;85.13;;;36.35;;
29120;SDS011;16191;49.548;8.658;2022-12-17T17:25:23;99.05;;;42.55;;
29120;SDS011;16191;49.548;8.658;2022-12-17T17:28:10;92.93;;;39.80;;
29120;SDS011;16191;49.548;8.658;2022-12-17T17:30:36;97.68;;;39.00;;
29120;SDS011;16191;49.548;8.658;2022-12-17T17:33:03;89.18;;;41.55;;
29120;SDS011;16191;49.548;8.658;2022-12-17T17:35:29;84.30;;;36.00;;
29120;SDS011;16191;49.548;8.658;2022-12-17T17:37:56;103.78;;;43.63;;